sensor_id;sensor_type;location;lat;lon;timestamp;temperature;humidity
72919;SHT30;61063;55.700;26.994;2022-07-23T00:00:56;20.4;74.9
72919;SHT30;61063;55.700;26.994;2022-07-23T00:05:57;20.3;74.9
72919;SHT30;61063;55.700;26.994;2022-07-23T00:10:57;20.3;74.7
72919;SHT30;61063;55.700;26.994;2022-07-23T00:15:56;20.3;74.3
72919;SHT30;61063;55.700;26.994;2022-07-23T00:20:57;20.3;74.2
72919;SHT30;61063;55.700;26.994;2022-07-23T00:25:57;20.2;74.2
72919;SHT30;61063;55.700;26.994;2022-07-23T00:30:56;20.1;74.5
72919;SHT30;61063;55.700;26.994;2022-07-23T00:35:56;20.1;74.6
72919;SHT30;61063;55.700;26.994;2022-07-23T00:40:56;20.1;74.6
72919;SHT30;61063;55.700;26.994;2022-07-23T00:45:57;20.1;74.4
72919;SHT30;61063;55.700;26.994;2022-07-23T00:50:57;20;74.8
72919;SHT30;61063;55.700;26.994;2022-07-23T00:55:57;19.8;75.6
72919;SHT30;61063;55.700;26.994;2022-07-23T01:00:56;19.6;76.1
72919;SHT30;61063;55.700;26.994;2022-07-23T01:05:56;19.5;76.5
72919;SHT30;61063;55.700;26.994;2022-07-23T01:10:56;19.4;77
72919;SHT30;61063;55.700;26.994;2022-07-23T01:15:57;19.2;77.6
72919;SHT30;61063;55.700;26.994;2022-07-23T01:20:56;19.2;77.4
72919;SHT30;61063;55.700;26.994;2022-07-23T01:25:56;19.1;77.4
72919;SHT30;61063;55.700;26.994;2022-07-23T01:30:57;19;77.5
72919;SHT30;61063;55.700;26.994;2022-07-23T01:35:56;19;77.7
72919;SHT30;61063;55.700;26.994;2022-07-23T01:40:57;19;77.7
72919;SHT30;61063;55.700;26.994;2022-07-23T01:45:56;19;77.7
72919;SHT30;61063;55.700;26.994;2022-07-23T01:50:57;18.9;77.6
72919;SHT30;61063;55.700;26.994;2022-07-23T01:55:57;18.9;77.5
72919;SHT30;61063;55.700;26.994;2022-07-23T02:00:57;19;77.4
72919;SHT30;61063;55.700;26.994;2022-07-23T02:05:56;19.1;77.2
72919;SHT30;61063;55.700;26.994;2022-07-23T02:10:56;19;77.2
72919;SHT30;61063;55.700;26.994;2022-07-23T02:15:57;18.9;77.5
72919;SHT30;61063;55.700;26.994;2022-07-23T02:20:56;18.8;78
72919;SHT30;61063;55.700;26.994;2022-07-23T02:25:57;18.8;78
72919;SHT30;61063;55.700;26.994;2022-07-23T02:30:56;18.9;77.8
72919;SHT30;61063;55.700;26.994;2022-07-23T02:35:56;19;77.6
72919;SHT30;61063;55.700;26.994;2022-07-23T02:40:57;19.1;77.3
72919;SHT30;61063;55.700;26.994;2022-07-23T02:45:56;19.3;77
72919;SHT30;61063;55.700;26.994;2022-07-23T02:50:57;19.3;76.9
72919;SHT30;61063;55.700;26.994;2022-07-23T02:55:57;19.5;76.5
72919;SHT30;61063;55.700;26.994;2022-07-23T03:00:57;19.6;76.3
72919;SHT30;61063;55.700;26.994;2022-07-23T03:05:57;19.7;75.9
72919;SHT30;61063;55.700;26.994;2022-07-23T03:10:57;19.8;75.4
72919;SHT30;61063;55.700;26.994;2022-07-23T03:15:56;20;75.4
72919;SHT30;61063;55.700;26.994;2022-07-23T03:20:57;20;75.5
72919;SHT30;61063;55.700;26.994;2022-07-23T03:25:56;20;75.5
72919;SHT30;61063;55.700;26.994;2022-07-23T03:30:57;20.3;75.5
72919;SHT30;61063;55.700;26.994;2022-07-23T03:35:56;20.4;75.3
72919;SHT30;61063;55.700;26.994;2022-07-23T03:40:56;20.6;74.8
72919;SHT30;61063;55.700;26.994;2022-07-23T03:45:57;20.9;73.9
72919;SHT30;61063;55.700;26.994;2022-07-23T03:50:56;21.2;73.7
72919;SHT30;61063;55.700;26.994;2022-07-23T03:55:57;21.3;72.9
72919;SHT30;61063;55.700;26.994;2022-07-23T04:00:57;21.4;72.3
72919;SHT30;61063;55.700;26.994;2022-07-23T04:05:57;21.4;72.6
72919;SHT30;61063;55.700;26.994;2022-07-23T04:10:57;21.3;73.1
72919;SHT30;61063;55.700;26.994;2022-07-23T04:15:57;21.4;73
72919;SHT30;61063;55.700;26.994;2022-07-23T04:20:57;21.4;73.4
72919;SHT30;61063;55.700;26.994;2022-07-23T04:25:56;21.5;73.2
72919;SHT30;61063;55.700;26.994;2022-07-23T04:30:57;21.5;72.7
72919;SHT30;61063;55.700;26.994;2022-07-23T04:35:57;21.5;73.2
72919;SHT30;61063;55.700;26.994;2022-07-23T04:40:56;21.6;72.6
72919;SHT30;61063;55.700;26.994;2022-07-23T04:45:56;22;72.1
72919;SHT30;61063;55.700;26.994;2022-07-23T04:50:57;22.4;71.1
72919;SHT30;61063;55.700;26.994;2022-07-23T04:55:57;22.7;70.1
72919;SHT30;61063;55.700;26.994;2022-07-23T05:00:57;23;69.8
72919;SHT30;61063;55.700;26.994;2022-07-23T05:05:57;23.2;68.8
72919;SHT30;61063;55.700;26.994;2022-07-23T05:10:57;23.4;68.6
72919;SHT30;61063;55.700;26.994;2022-07-23T05:15:57;23.6;67.7
72919;SHT30;61063;55.700;26.994;2022-07-23T05:20:57;23.9;68.1
72919;SHT30;61063;55.700;26.994;2022-07-23T05:25:57;24.1;67.7
72919;SHT30;61063;55.700;26.994;2022-07-23T05:30:57;24.3;66.6
72919;SHT30;61063;55.700;26.994;2022-07-23T05:36:00;24.4;66.1
72919;SHT30;61063;55.700;26.994;2022-07-23T05:40:57;24.6;66
72919;SHT30;61063;55.700;26.994;2022-07-23T05:45:57;24.8;65.9
72919;SHT30;61063;55.700;26.994;2022-07-23T05:50:57;25.1;65.9
72919;SHT30;61063;55.700;26.994;2022-07-23T05:55:57;25.5;65.3
72919;SHT30;61063;55.700;26.994;2022-07-23T06:00:57;25.6;64.2
72919;SHT30;61063;55.700;26.994;2022-07-23T06:05:57;25.8;64.4
72919;SHT30;61063;55.700;26.994;2022-07-23T06:10:57;25.9;64.4
72919;SHT30;61063;55.700;26.994;2022-07-23T06:15:57;26.1;63.9
72919;SHT30;61063;55.700;26.994;2022-07-23T06:20:57;26.3;63.5
72919;SHT30;61063;55.700;26.994;2022-07-23T06:25:57;26.4;63.3
72919;SHT30;61063;55.700;26.994;2022-07-23T06:30:57;26.6;63.4
72919;SHT30;61063;55.700;26.994;2022-07-23T06:35:57;27;62.9
72919;SHT30;61063;55.700;26.994;2022-07-23T06:40:57;27.2;62.8
72919;SHT30;61063;55.700;26.994;2022-07-23T06:45:56;27.3;61.5
72919;SHT30;61063;55.700;26.994;2022-07-23T06:50:56;27.4;61.8
72919;SHT30;61063;55.700;26.994;2022-07-23T06:55:57;27.7;61.3
72919;SHT30;61063;55.700;26.994;2022-07-23T07:00:57;27.9;61
72919;SHT30;61063;55.700;26.994;2022-07-23T07:05:57;28.1;60.5
72919;SHT30;61063;55.700;26.994;2022-07-23T07:10:57;28.2;60.5
72919;SHT30;61063;55.700;26.994;2022-07-23T07:15:57;28.2;59.7
72919;SHT30;61063;55.700;26.994;2022-07-23T07:20:57;28.2;59.4
72919;SHT30;61063;55.700;26.994;2022-07-23T07:25:57;28.3;59.5
72919;SHT30;61063;55.700;26.994;2022-07-23T07:30:57;28.5;59.4
72919;SHT30;61063;55.700;26.994;2022-07-23T07:35:57;28.5;59.1
72919;SHT30;61063;55.700;26.994;2022-07-23T07:40:57;28.6;59.2
72919;SHT30;61063;55.700;26.994;2022-07-23T07:45:57;28.9;58.6
72919;SHT30;61063;55.700;26.994;2022-07-23T07:50:57;29;58
72919;SHT30;61063;55.700;26.994;2022-07-23T07:55:57;29;57.3
72919;SHT30;61063;55.700;26.994;2022-07-23T08:00:57;28.5;57.1
72919;SHT30;61063;55.700;26.994;2022-07-23T08:05:57;28.5;57.8
72919;SHT30;61063;55.700;26.994;2022-07-23T08:10:57;28.3;58
72919;SHT30;61063;55.700;26.994;2022-07-23T08:15:57;28.5;58.2
72919;SHT30;61063;55.700;26.994;2022-07-23T08:20:57;28.7;58.2
72919;SHT30;61063;55.700;26.994;2022-07-23T08:25:57;29;57.6
72919;SHT30;61063;55.700;26.994;2022-07-23T08:30:57;29;56.8
72919;SHT30;61063;55.700;26.994;2022-07-23T08:35:57;28.9;57.4
72919;SHT30;61063;55.700;26.994;2022-07-23T08:40:57;29.1;57.8
72919;SHT30;61063;55.700;26.994;2022-07-23T08:45:57;29.4;57.2
72919;SHT30;61063;55.700;26.994;2022-07-23T08:50:58;29.7;57
72919;SHT30;61063;55.700;26.994;2022-07-23T08:55:58;29.8;56.8
72919;SHT30;61063;55.700;26.994;2022-07-23T09:00:57;30.1;57.1
72919;SHT30;61063;55.700;26.994;2022-07-23T09:05:57;30.6;55.7
72919;SHT30;61063;55.700;26.994;2022-07-23T09:10:58;30.6;54.1
72919;SHT30;61063;55.700;26.994;2022-07-23T09:15:58;30.4;54.4
72919;SHT30;61063;55.700;26.994;2022-07-23T09:21:15;30.1;55.3
72919;SHT30;61063;55.700;26.994;2022-07-23T09:25:57;30.3;55.6
72919;SHT30;61063;55.700;26.994;2022-07-23T09:30:57;30.8;55
72919;SHT30;61063;55.700;26.994;2022-07-23T09:35:57;31.4;54
72919;SHT30;61063;55.700;26.994;2022-07-23T09:41:12;31.1;54
72919;SHT30;61063;55.700;26.994;2022-07-23T09:46:16;30.6;54.9
72919;SHT30;61063;55.700;26.994;2022-07-23T09:51:01;30.6;54.9
72919;SHT30;61063;55.700;26.994;2022-07-23T09:55:57;30.9;54.7
72919;SHT30;61063;55.700;26.994;2022-07-23T10:00:57;31;54.4
72919;SHT30;61063;55.700;26.994;2022-07-23T10:05:57;30.8;55
72919;SHT30;61063;55.700;26.994;2022-07-23T10:10:57;31;54.9
72919;SHT30;61063;55.700;26.994;2022-07-23T10:15:57;31.3;54.6
72919;SHT30;61063;55.700;26.994;2022-07-23T10:20:57;30.6;54.8
72919;SHT30;61063;55.700;26.994;2022-07-23T10:25:59;29.9;56.4
72919;SHT30;61063;55.700;26.994;2022-07-23T10:31:02;29.7;57
72919;SHT30;61063;55.700;26.994;2022-07-23T10:37:05;29.6;57.8
72919;SHT30;61063;55.700;26.994;2022-07-23T10:40:58;29.3;58.4
72919;SHT30;61063;55.700;26.994;2022-07-23T10:46:20;29.1;58.4
72919;SHT30;61063;55.700;26.994;2022-07-23T10:51:13;29.1;58.3
72919;SHT30;61063;55.700;26.994;2022-07-23T10:55:57;29.9;57.3
72919;SHT30;61063;55.700;26.994;2022-07-23T11:00:57;30;56.6
72919;SHT30;61063;55.700;26.994;2022-07-23T11:05:57;29.8;57.1
72919;SHT30;61063;55.700;26.994;2022-07-23T11:11:08;29.9;57.5
72919;SHT30;61063;55.700;26.994;2022-07-23T11:16:28;30;57.1
72919;SHT30;61063;55.700;26.994;2022-07-23T11:20:57;30.1;56.9
72919;SHT30;61063;55.700;26.994;2022-07-23T11:25:57;29.8;56.5
72919;SHT30;61063;55.700;26.994;2022-07-23T11:30:57;29.4;57.4
72919;SHT30;61063;55.700;26.994;2022-07-23T11:36:00;29.8;57.6
72919;SHT30;61063;55.700;26.994;2022-07-23T11:40:57;30.1;56.1
72919;SHT30;61063;55.700;26.994;2022-07-23T11:45:58;29.9;56.8
72919;SHT30;61063;55.700;26.994;2022-07-23T11:50:57;29.7;57.1
72919;SHT30;61063;55.700;26.994;2022-07-23T11:56:12;30.1;56.7
72919;SHT30;61063;55.700;26.994;2022-07-23T12:00:57;30.4;56.1
72919;SHT30;61063;55.700;26.994;2022-07-23T12:05:57;30.9;55
72919;SHT30;61063;55.700;26.994;2022-07-23T12:10:57;30.7;54.5
72919;SHT30;61063;55.700;26.994;2022-07-23T12:15:57;30.6;54.4
72919;SHT30;61063;55.700;26.994;2022-07-23T12:20:57;30.7;53.9
72919;SHT30;61063;55.700;26.994;2022-07-23T12:26:00;30.8;53.5
72919;SHT30;61063;55.700;26.994;2022-07-23T12:30:57;30.6;53.2
72919;SHT30;61063;55.700;26.994;2022-07-23T12:35:57;30.6;53.6
72919;SHT30;61063;55.700;26.994;2022-07-23T12:40:57;30.4;53.5
72919;SHT30;61063;55.700;26.994;2022-07-23T12:46:28;30.2;54.3
72919;SHT30;61063;55.700;26.994;2022-07-23T12:50:59;30.3;54.5
72919;SHT30;61063;55.700;26.994;2022-07-23T12:55:58;30.3;54.5
72919;SHT30;61063;55.700;26.994;2022-07-23T13:00:58;30.3;54.5
72919;SHT30;61063;55.700;26.994;2022-07-23T13:05:57;30.3;54.5
72919;SHT30;61063;55.700;26.994;2022-07-23T13:10:57;30.3;54.5
72919;SHT30;61063;55.700;26.994;2022-07-23T13:15:57;30.3;54.5
72919;SHT30;61063;55.700;26.994;2022-07-23T13:20:57;30.2;54.9
72919;SHT30;61063;55.700;26.994;2022-07-23T13:25:57;30.3;54.2
72919;SHT30;61063;55.700;26.994;2022-07-23T13:30:57;30.2;53.6
72919;SHT30;61063;55.700;26.994;2022-07-23T13:35:57;30.3;53.3
72919;SHT30;61063;55.700;26.994;2022-07-23T13:40:57;30.5;53.9
72919;SHT30;61063;55.700;26.994;2022-07-23T13:45:57;30.5;53.1
72919;SHT30;61063;55.700;26.994;2022-07-23T13:50:57;30.4;54
72919;SHT30;61063;55.700;26.994;2022-07-23T13:55:57;30.5;54
72919;SHT30;61063;55.700;26.994;2022-07-23T14:00:57;30.4;52.7
72919;SHT30;61063;55.700;26.994;2022-07-23T14:05:57;29.9;53.5
72919;SHT30;61063;55.700;26.994;2022-07-23T14:10:57;29.4;55.3
72919;SHT30;61063;55.700;26.994;2022-07-23T14:15:57;29.1;56.6
72919;SHT30;61063;55.700;26.994;2022-07-23T14:20:57;28.9;57.2
72919;SHT30;61063;55.700;26.994;2022-07-23T14:25:57;28.8;58.2
72919;SHT30;61063;55.700;26.994;2022-07-23T14:30:57;28.8;58
72919;SHT30;61063;55.700;26.994;2022-07-23T14:35:57;28.6;58.5
72919;SHT30;61063;55.700;26.994;2022-07-23T14:40:57;28.7;58.6
72919;SHT30;61063;55.700;26.994;2022-07-23T14:45:57;28.9;57
72919;SHT30;61063;55.700;26.994;2022-07-23T14:50:57;29.9;55.3
72919;SHT30;61063;55.700;26.994;2022-07-23T14:55:57;30.6;53.2
72919;SHT30;61063;55.700;26.994;2022-07-23T15:00:57;30.7;52.9
72919;SHT30;61063;55.700;26.994;2022-07-23T15:05:57;30.7;52.8
72919;SHT30;61063;55.700;26.994;2022-07-23T15:10:57;30.1;53.5
72919;SHT30;61063;55.700;26.994;2022-07-23T15:15:57;29.7;54.5
72919;SHT30;61063;55.700;26.994;2022-07-23T15:20:57;29.5;54.7
72919;SHT30;61063;55.700;26.994;2022-07-23T15:25:57;29.7;54.5
72919;SHT30;61063;55.700;26.994;2022-07-23T15:30:57;29.5;54.5
72919;SHT30;61063;55.700;26.994;2022-07-23T15:35:57;29.1;55.9
72919;SHT30;61063;55.700;26.994;2022-07-23T15:40:57;29.2;56
72919;SHT30;61063;55.700;26.994;2022-07-23T15:45:57;29.8;54.7
72919;SHT30;61063;55.700;26.994;2022-07-23T15:50:57;30.3;53.3
72919;SHT30;61063;55.700;26.994;2022-07-23T15:55:57;30.3;53.1
72919;SHT30;61063;55.700;26.994;2022-07-23T16:00:57;30.3;53.3
72919;SHT30;61063;55.700;26.994;2022-07-23T16:05:57;30;53.4
72919;SHT30;61063;55.700;26.994;2022-07-23T16:10:57;29.8;54.3
72919;SHT30;61063;55.700;26.994;2022-07-23T16:15:57;29.8;54.7
72919;SHT30;61063;55.700;26.994;2022-07-23T16:20:57;29.2;55.8
72919;SHT30;61063;55.700;26.994;2022-07-23T16:25:57;28.4;57.7
72919;SHT30;61063;55.700;26.994;2022-07-23T16:30:57;28.3;58.4
72919;SHT30;61063;55.700;26.994;2022-07-23T16:35:57;28.7;57.5
72919;SHT30;61063;55.700;26.994;2022-07-23T16:40:57;29.2;56.5
72919;SHT30;61063;55.700;26.994;2022-07-23T16:45:57;29.2;56.6
72919;SHT30;61063;55.700;26.994;2022-07-23T16:50:57;29.1;56.7
72919;SHT30;61063;55.700;26.994;2022-07-23T16:55:57;29.1;57.1
72919;SHT30;61063;55.700;26.994;2022-07-23T17:00:57;29.2;57.1
72919;SHT30;61063;55.700;26.994;2022-07-23T17:05:57;29.2;57.3
72919;SHT30;61063;55.700;26.994;2022-07-23T17:10:57;29.3;57
72919;SHT30;61063;55.700;26.994;2022-07-23T17:15:57;29.4;57.1
72919;SHT30;61063;55.700;26.994;2022-07-23T17:20:57;29.3;57.6
72919;SHT30;61063;55.700;26.994;2022-07-23T17:25:57;29.1;58
72919;SHT30;61063;55.700;26.994;2022-07-23T17:30:57;28.9;59
72919;SHT30;61063;55.700;26.994;2022-07-23T17:35:57;28.7;59.5
72919;SHT30;61063;55.700;26.994;2022-07-23T17:40:57;28.4;60.5
72919;SHT30;61063;55.700;26.994;2022-07-23T17:45:57;27.8;62.2
72919;SHT30;61063;55.700;26.994;2022-07-23T17:50:57;27.2;64.7
72919;SHT30;61063;55.700;26.994;2022-07-23T17:55:57;26.7;65.5
72919;SHT30;61063;55.700;26.994;2022-07-23T18:00:57;26.2;66.9
72919;SHT30;61063;55.700;26.994;2022-07-23T18:05:57;25.6;68.4
72919;SHT30;61063;55.700;26.994;2022-07-23T18:10:57;25.2;69.3
72919;SHT30;61063;55.700;26.994;2022-07-23T18:15:57;24.7;70.7
72919;SHT30;61063;55.700;26.994;2022-07-23T18:20:57;24.3;71.7
72919;SHT30;61063;55.700;26.994;2022-07-23T18:25:57;23.9;72.7
72919;SHT30;61063;55.700;26.994;2022-07-23T18:30:57;23.6;72.5
72919;SHT30;61063;55.700;26.994;2022-07-23T18:35:57;23.5;72.8
72919;SHT30;61063;55.700;26.994;2022-07-23T18:40:57;23.3;73
72919;SHT30;61063;55.700;26.994;2022-07-23T18:45:57;23.2;73
72919;SHT30;61063;55.700;26.994;2022-07-23T18:50:57;23;73.4
72919;SHT30;61063;55.700;26.994;2022-07-23T18:55:57;22.9;73.7
72919;SHT30;61063;55.700;26.994;2022-07-23T19:00:57;22.7;74.1
72919;SHT30;61063;55.700;26.994;2022-07-23T19:05:57;22.6;74.4
72919;SHT30;61063;55.700;26.994;2022-07-23T19:10:57;22.4;74.8
72919;SHT30;61063;55.700;26.994;2022-07-23T19:15:57;22.4;75
72919;SHT30;61063;55.700;26.994;2022-07-23T19:20:57;22.3;75
72919;SHT30;61063;55.700;26.994;2022-07-23T19:25:57;22.3;75.3
72919;SHT30;61063;55.700;26.994;2022-07-23T19:30:57;22.2;75.4
72919;SHT30;61063;55.700;26.994;2022-07-23T19:35:57;22.1;75.6
72919;SHT30;61063;55.700;26.994;2022-07-23T19:40:57;22.1;75.4
72919;SHT30;61063;55.700;26.994;2022-07-23T19:45:57;22.2;75.3
72919;SHT30;61063;55.700;26.994;2022-07-23T19:50:57;22.2;74.9
72919;SHT30;61063;55.700;26.994;2022-07-23T19:55:57;22.2;74.6
72919;SHT30;61063;55.700;26.994;2022-07-23T20:00:57;22.2;74.5
72919;SHT30;61063;55.700;26.994;2022-07-23T20:05:57;22.1;74.8
72919;SHT30;61063;55.700;26.994;2022-07-23T20:10:57;21.9;75.1
72919;SHT30;61063;55.700;26.994;2022-07-23T20:15:57;21.8;75.4
72919;SHT30;61063;55.700;26.994;2022-07-23T20:20:57;21.6;75.9
72919;SHT30;61063;55.700;26.994;2022-07-23T20:25:57;21.5;76.5
72919;SHT30;61063;55.700;26.994;2022-07-23T20:30:57;21.3;76.9
72919;SHT30;61063;55.700;26.994;2022-07-23T20:35:57;21;77.9
72919;SHT30;61063;55.700;26.994;2022-07-23T20:40:57;20.8;78.7
72919;SHT30;61063;55.700;26.994;2022-07-23T20:45:57;20.7;79.3
72919;SHT30;61063;55.700;26.994;2022-07-23T20:50:57;20.7;79.3
72919;SHT30;61063;55.700;26.994;2022-07-23T20:55:57;20.7;79.3
72919;SHT30;61063;55.700;26.994;2022-07-23T21:00:57;20.7;79.3
72919;SHT30;61063;55.700;26.994;2022-07-23T21:05:57;20.7;79.3
72919;SHT30;61063;55.700;26.994;2022-07-23T21:10:57;20.7;79.3
72919;SHT30;61063;55.700;26.994;2022-07-23T21:15:57;20.7;79.3
72919;SHT30;61063;55.700;26.994;2022-07-23T21:20:57;20.7;79.3
72919;SHT30;61063;55.700;26.994;2022-07-23T21:25:57;20.7;79.3
72919;SHT30;61063;55.700;26.994;2022-07-23T21:30:57;20.2;79.2
72919;SHT30;61063;55.700;26.994;2022-07-23T21:35:57;19.7;79.3
72919;SHT30;61063;55.700;26.994;2022-07-23T21:40:57;19.7;79.2
72919;SHT30;61063;55.700;26.994;2022-07-23T21:45:57;19.7;78.9
72919;SHT30;61063;55.700;26.994;2022-07-23T21:50:57;19.7;78.7
72919;SHT30;61063;55.700;26.994;2022-07-23T21:55:57;19.8;78.5
72919;SHT30;61063;55.700;26.994;2022-07-23T22:00:57;19.7;78.5
72919;SHT30;61063;55.700;26.994;2022-07-23T22:05:57;19.7;78.5
72919;SHT30;61063;55.700;26.994;2022-07-23T22:10:57;19.6;78.6
72919;SHT30;61063;55.700;26.994;2022-07-23T22:15:57;19.6;78.7
72919;SHT30;61063;55.700;26.994;2022-07-23T22:20:57;19.6;78.7
72919;SHT30;61063;55.700;26.994;2022-07-23T22:25:57;19.6;78.5
72919;SHT30;61063;55.700;26.994;2022-07-23T22:30:57;19.5;78.5
72919;SHT30;61063;55.700;26.994;2022-07-23T22:35:57;19.5;78.5
72919;SHT30;61063;55.700;26.994;2022-07-23T22:40:57;19.5;78.3
72919;SHT30;61063;55.700;26.994;2022-07-23T22:45:57;19.5;78.3
72919;SHT30;61063;55.700;26.994;2022-07-23T22:50:57;19.3;78.6
72919;SHT30;61063;55.700;26.994;2022-07-23T22:55:57;19.2;78.6
72919;SHT30;61063;55.700;26.994;2022-07-23T23:00:57;19.2;78.8
72919;SHT30;61063;55.700;26.994;2022-07-23T23:05:57;19.1;78.9
72919;SHT30;61063;55.700;26.994;2022-07-23T23:10:57;19.1;78.8
72919;SHT30;61063;55.700;26.994;2022-07-23T23:15:57;19.1;78.7
72919;SHT30;61063;55.700;26.994;2022-07-23T23:20:57;19.1;78.7
72919;SHT30;61063;55.700;26.994;2022-07-23T23:25:57;19;78.8
72919;SHT30;61063;55.700;26.994;2022-07-23T23:30:57;19;78.7
72919;SHT30;61063;55.700;26.994;2022-07-23T23:35:57;18.9;78.8
72919;SHT30;61063;55.700;26.994;2022-07-23T23:40:57;18.7;79.3
72919;SHT30;61063;55.700;26.994;2022-07-23T23:45:57;18.6;79.8
72919;SHT30;61063;55.700;26.994;2022-07-23T23:50:57;18.6;79.8
72919;SHT30;61063;55.700;26.994;2022-07-23T23:55:57;18.5;79.8
